Time;durP1;ratioP1;P1;durP2;ratioP2;P2;SDS_P1;SDS_P2;PMS_P1;PMS_P2;Temp;Humidity;BMP_temperature;BMP_pressure;BME280_temperature;BME280_humidity;BME280_pressure;Samples;Min_cycle;Max_cycle;Signal;HPM_P1;HPM_P2
2023/08/15 00:02:18;;;;;;;8.73;6.97;;;;;;;;;;5067715;28;20183;-63
2023/08/15 00:04:44;;;;;;;10.50;7.47;;;;;;;;;;5067097;28;20178;-64
2023/08/15 00:07:10;;;;;;;11.77;8.10;;;;;;;;;;5063437;28;20186;-64
2023/08/15 00:09:36;;;;;;;9.33;6.83;;;;;;;;;;5056504;28;20214;-64
2023/08/15 00:12:02;;;;;;;10.63;7.97;;;;;;;;;;5040829;28;20210;-64
2023/08/15 00:14:28;;;;;;;8.77;7.00;;;;;;;;;;5057890;28;20183;-64
2023/08/15 00:16:54;;;;;;;19.83;10.47;;;;;;;;;;5057053;28;20199;-64
2023/08/15 00:19:20;;;;;;;15.07;7.50;;;;;;;;;;5038606;28;20194;-64
2023/08/15 00:21:46;;;;;;;10.83;7.73;;;;;;;;;;5038517;28;20178;-64
2023/08/15 00:24:12;;;;;;;12.53;8.20;;;;;;;;;;5056249;28;20194;-64
2023/08/15 00:26:38;;;;;;;20.53;8.53;;;;;;;;;;5056921;28;20175;-64
2023/08/15 00:29:04;;;;;;;10.80;7.47;;;;;;;;;;5056237;28;20198;-64
2023/08/15 00:31:30;;;;;;;10.47;7.30;;;;;;;;;;5056206;28;20179;-64
2023/08/15 00:33:56;;;;;;;12.43;8.07;;;;;;;;;;5038838;28;20206;-65
2023/08/15 00:36:22;;;;;;;11.83;8.40;;;;;;;;;;5038274;28;20236;-65
2023/08/15 00:38:48;;;;;;;14.90;8.30;;;;;;;;;;5056065;28;20203;-65
2023/08/15 00:41:14;;;;;;;9.17;7.63;;;;;;;;;;5038417;28;20186;-65
2023/08/15 00:43:40;;;;;;;10.57;8.10;;;;;;;;;;5038329;28;20280;-64
2023/08/15 00:46:06;;;;;;;13.30;8.50;;;;;;;;;;5055891;28;20186;-65
2023/08/15 00:48:33;;;;;;;10.07;8.43;;;;;;;;;;5055964;28;20195;-65
2023/08/15 00:51:02;;;;;;;11.67;8.03;;;;;;;;;;5037894;28;20182;-64
2023/08/15 00:53:29;;;;;;;11.07;8.93;;;;;;;;;;5055942;28;20182;-64
2023/08/15 00:55:56;;;;;;;10.83;7.90;;;;;;;;;;5056034;28;20179;-65
2023/08/15 00:58:22;;;;;;;12.23;8.77;;;;;;;;;;5055778;28;20207;-64
2023/08/15 01:00:48;;;;;;;11.83;8.23;;;;;;;;;;5055766;28;20186;-65
2023/08/15 01:03:14;;;;;;;10.33;7.77;;;;;;;;;;5056024;28;20178;-65
2023/08/15 01:05:41;;;;;;;11.30;8.30;;;;;;;;;;5055486;28;20189;-65
2023/08/15 01:08:07;;;;;;;11.53;7.83;;;;;;;;;;5054854;28;20225;-65
2023/08/15 01:10:33;;;;;;;9.00;7.70;;;;;;;;;;5037357;28;20739;-65
2023/08/15 01:13:02;;;;;;;8.40;7.60;;;;;;;;;;5055524;28;20228;-65
2023/08/15 01:15:30;;;;;;;11.77;7.63;;;;;;;;;;5055445;28;20182;-65
2023/08/15 01:18:02;;;;;;;8.30;7.33;;;;;;;;;;5055253;28;20213;-65
2023/08/15 01:20:30;;;;;;;14.60;8.07;;;;;;;;;;5055442;28;20220;-65
2023/08/15 01:22:58;;;;;;;9.57;8.20;;;;;;;;;;5055384;28;20175;-65
2023/08/15 01:25:25;;;;;;;12.43;7.97;;;;;;;;;;5055349;28;20182;-65
2023/08/15 01:27:51;;;;;;;15.30;8.83;;;;;;;;;;5055865;28;20249;-64
2023/08/15 01:30:18;;;;;;;11.83;7.80;;;;;;;;;;5055070;28;20207;-65
2023/08/15 01:32:49;;;;;;;10.40;8.73;;;;;;;;;;5055046;28;20270;-65
2023/08/15 01:35:28;;;;;;;9.17;8.10;;;;;;;;;;5055377;28;20643;-65
2023/08/15 01:37:59;;;;;;;9.90;7.77;;;;;;;;;;5036896;28;20617;-65
2023/08/15 01:40:26;;;;;;;12.77;7.73;;;;;;;;;;5036945;28;20237;-65
2023/08/15 01:42:55;;;;;;;9.43;7.73;;;;;;;;;;5036957;28;20178;-65
2023/08/15 01:45:23;;;;;;;10.23;8.37;;;;;;;;;;5054613;28;20645;-65
2023/08/15 01:47:49;;;;;;;10.77;7.93;;;;;;;;;;5036642;28;20187;-65
2023/08/15 01:50:15;;;;;;;12.10;7.30;;;;;;;;;;5036585;28;20214;-65
2023/08/15 01:52:41;;;;;;;14.00;8.17;;;;;;;;;;5054695;28;20184;-65
2023/08/15 01:55:07;;;;;;;11.70;8.00;;;;;;;;;;5036305;28;20185;-65
2023/08/15 01:57:33;;;;;;;8.37;7.40;;;;;;;;;;5036380;28;20255;-65
2023/08/15 01:59:59;;;;;;;8.73;7.43;;;;;;;;;;5054624;28;20285;-65
2023/08/15 02:02:24;;;;;;;10.40;7.43;;;;;;;;;;5054238;28;20181;-65
2023/08/15 02:04:50;;;;;;;10.27;7.90;;;;;;;;;;5054063;28;20189;-65
2023/08/15 02:07:16;;;;;;;13.27;6.60;;;;;;;;;;5035931;28;20182;-65
2023/08/15 02:09:42;;;;;;;8.20;7.27;;;;;;;;;;5053534;28;20592;-65
2023/08/15 02:12:08;;;;;;;9.47;7.07;;;;;;;;;;5053773;28;20182;-65
2023/08/15 02:14:34;;;;;;;8.23;6.17;;;;;;;;;;5053986;28;20236;-65
2023/08/15 02:17:00;;;;;;;9.73;7.10;;;;;;;;;;5053772;28;20202;-65
2023/08/15 02:19:26;;;;;;;7.67;6.83;;;;;;;;;;5053390;28;20204;-65
2023/08/15 02:21:52;;;;;;;11.47;7.27;;;;;;;;;;5054394;28;20273;-65
2023/08/15 02:24:18;;;;;;;8.03;6.87;;;;;;;;;;5054672;28;20595;-65
2023/08/15 02:26:44;;;;;;;9.03;7.10;;;;;;;;;;5054031;28;20182;-65
2023/08/15 02:29:10;;;;;;;10.60;7.07;;;;;;;;;;5053481;28;20194;-67
2023/08/15 02:31:42;;;;;;;8.53;7.33;;;;;;;;;;5053740;28;20705;-65
2023/08/15 02:34:08;;;;;;;7.57;6.83;;;;;;;;;;5054724;28;20238;-66
2023/08/15 02:36:34;;;;;;;8.93;7.17;;;;;;;;;;5035492;28;20170;-66
2023/08/15 02:39:00;;;;;;;9.90;6.93;;;;;;;;;;5053408;28;20198;-66
2023/08/15 02:41:26;;;;;;;8.73;6.63;;;;;;;;;;5053355;28;20245;-65
2023/08/15 02:43:52;;;;;;;8.07;6.60;;;;;;;;;;5035610;28;20259;-67
2023/08/15 02:46:19;;;;;;;8.27;7.03;;;;;;;;;;5035523;28;20183;-66
2023/08/15 02:48:45;;;;;;;10.37;6.90;;;;;;;;;;5053160;28;20197;-66
2023/08/15 02:51:11;;;;;;;8.40;6.77;;;;;;;;;;5035593;28;20178;-66
2023/08/15 02:53:37;;;;;;;8.67;6.73;;;;;;;;;;5035559;28;20189;-67
2023/08/15 02:56:03;;;;;;;11.83;7.13;;;;;;;;;;5035285;28;20186;-66
2023/08/15 02:58:29;;;;;;;9.67;7.20;;;;;;;;;;5052903;28;20229;-66
2023/08/15 03:00:55;;;;;;;9.57;7.50;;;;;;;;;;5035372;28;20269;-66
2023/08/15 03:03:21;;;;;;;11.00;7.93;;;;;;;;;;5053388;28;20170;-67
2023/08/15 03:05:47;;;;;;;9.97;7.97;;;;;;;;;;5035362;28;20269;-67
2023/08/15 03:08:13;;;;;;;14.37;8.97;;;;;;;;;;5052996;28;20276;-67
2023/08/15 03:10:39;;;;;;;12.67;9.00;;;;;;;;;;5053063;28;20182;-67
2023/08/15 03:13:05;;;;;;;11.67;8.77;;;;;;;;;;5053822;28;20178;-66
2023/08/15 03:15:31;;;;;;;11.43;8.47;;;;;;;;;;5035846;28;20188;-66
2023/08/15 03:17:57;;;;;;;10.27;8.83;;;;;;;;;;5053801;28;20206;-66
2023/08/15 03:20:23;;;;;;;13.17;8.73;;;;;;;;;;5035306;28;20205;-65
2023/08/15 03:22:49;;;;;;;14.03;8.93;;;;;;;;;;5053966;28;20628;-66
2023/08/15 03:25:15;;;;;;;11.97;9.03;;;;;;;;;;5053135;28;20221;-66
2023/08/15 03:27:41;;;;;;;13.37;9.07;;;;;;;;;;5053340;28;20190;-66
2023/08/15 03:30:07;;;;;;;12.63;10.07;;;;;;;;;;5053389;28;20251;-66
2023/08/15 03:32:33;;;;;;;11.97;10.63;;;;;;;;;;5055838;28;20189;-70
2023/08/15 03:34:59;;;;;;;13.77;10.13;;;;;;;;;;5039779;28;20198;-66
2023/08/15 03:37:26;;;;;;;16.07;9.93;;;;;;;;;;5057829;28;20206;-67
2023/08/15 03:39:52;;;;;;;12.97;9.97;;;;;;;;;;5039258;28;20574;-67
2023/08/15 03:42:18;;;;;;;16.77;9.70;;;;;;;;;;5057349;28;20173;-66
2023/08/15 03:44:44;;;;;;;12.03;9.90;;;;;;;;;;5057029;28;20692;-66
2023/08/15 03:47:10;;;;;;;17.23;10.63;;;;;;;;;;5039163;28;20181;-66
2023/08/15 03:49:37;;;;;;;16.97;11.17;;;;;;;;;;5056801;28;20277;-66
2023/08/15 03:52:04;;;;;;;16.00;12.03;;;;;;;;;;5039257;28;20232;-66
2023/08/15 03:54:30;;;;;;;15.67;10.90;;;;;;;;;;5056703;28;20198;-66
2023/08/15 03:56:56;;;;;;;18.27;11.43;;;;;;;;;;5056574;28;20237;-66
2023/08/15 03:59:22;;;;;;;14.43;10.97;;;;;;;;;;5038745;28;20206;-66
2023/08/15 04:01:48;;;;;;;15.87;12.17;;;;;;;;;;5038596;28;20175;-66
2023/08/15 04:04:14;;;;;;;15.20;10.77;;;;;;;;;;5038508;28;20217;-64
2023/08/15 04:06:41;;;;;;;16.73;12.00;;;;;;;;;;5038451;28;20499;-65
2023/08/15 04:09:07;;;;;;;14.03;11.27;;;;;;;;;;5056121;28;20216;-66
2023/08/15 04:11:33;;;;;;;15.87;11.57;;;;;;;;;;5038501;28;20597;-65
2023/08/15 04:13:59;;;;;;;15.60;11.67;;;;;;;;;;5056437;28;20228;-65
2023/08/15 04:16:25;;;;;;;17.30;11.40;;;;;;;;;;5056688;28;20179;-65
2023/08/15 04:18:51;;;;;;;20.83;11.30;;;;;;;;;;5069871;22;20234;-70
2023/08/15 04:21:16;;;;;;;16.53;11.47;;;;;;;;;;5037330;28;20163;-71
2023/08/15 04:23:42;;;;;;;18.10;12.33;;;;;;;;;;5036381;28;20174;-70
2023/08/15 04:26:08;;;;;;;16.20;12.53;;;;;;;;;;5034917;28;20179;-70
2023/08/15 04:28:34;;;;;;;18.07;11.97;;;;;;;;;;5035942;28;20195;-69
2023/08/15 04:31:00;;;;;;;15.47;11.47;;;;;;;;;;5035944;28;20688;-71
2023/08/15 04:33:26;;;;;;;14.80;11.57;;;;;;;;;;5034606;28;20282;-70
2023/08/15 04:35:52;;;;;;;17.77;12.03;;;;;;;;;;5034577;28;20215;-68
2023/08/15 04:38:18;;;;;;;13.40;11.50;;;;;;;;;;5034432;28;20222;-68
2023/08/15 04:40:44;;;;;;;17.37;12.37;;;;;;;;;;5035910;28;20178;-68
2023/08/15 04:43:10;;;;;;;16.93;12.20;;;;;;;;;;5034059;28;20653;-68
2023/08/15 04:45:40;;;;;;;16.63;12.17;;;;;;;;;;5034397;28;20595;-69
2023/08/15 04:48:07;;;;;;;15.10;12.97;;;;;;;;;;5034189;28;20183;-69
2023/08/15 04:50:33;;;;;;;16.80;12.93;;;;;;;;;;5034354;28;20183;-69
2023/08/15 04:52:59;;;;;;;15.50;12.43;;;;;;;;;;5034218;28;20334;-69
2023/08/15 04:55:25;;;;;;;19.03;13.43;;;;;;;;;;5034172;28;20186;-69
2023/08/15 04:57:51;;;;;;;18.27;12.77;;;;;;;;;;5035280;28;20222;-69
2023/08/15 05:00:19;;;;;;;20.03;14.53;;;;;;;;;;5034246;28;20199;-69
2023/08/15 05:02:45;;;;;;;19.77;13.30;;;;;;;;;;5034008;28;20644;-69
2023/08/15 05:05:11;;;;;;;16.97;14.40;;;;;;;;;;5035188;28;20225;-69
2023/08/15 05:07:37;;;;;;;22.27;15.10;;;;;;;;;;5035188;28;20555;-68
2023/08/15 05:10:03;;;;;;;16.97;13.93;;;;;;;;;;5033717;28;20211;-69
2023/08/15 05:12:29;;;;;;;19.77;14.07;;;;;;;;;;5035277;28;20194;-69
2023/08/15 05:14:55;;;;;;;20.17;13.93;;;;;;;;;;5034253;28;20191;-69
2023/08/15 05:17:21;;;;;;;19.33;13.97;;;;;;;;;;5034149;28;20258;-69
2023/08/15 05:19:47;;;;;;;21.33;14.13;;;;;;;;;;5033543;28;20701;-69
2023/08/15 05:22:13;;;;;;;18.17;15.27;;;;;;;;;;5033928;28;20253;-69
2023/08/15 05:24:39;;;;;;;22.20;14.80;;;;;;;;;;5035273;28;20210;-69
2023/08/15 05:27:05;;;;;;;18.50;13.60;;;;;;;;;;5033655;28;20657;-69
2023/08/15 05:29:31;;;;;;;17.10;12.00;;;;;;;;;;5034824;28;20210;-69
2023/08/15 05:31:57;;;;;;;13.60;10.27;;;;;;;;;;5034826;28;20179;-69
2023/08/15 05:34:23;;;;;;;11.37;7.47;;;;;;;;;;5035354;28;20180;-69
2023/08/15 05:36:49;;;;;;;12.37;7.00;;;;;;;;;;5035086;28;20179;-69
2023/08/15 05:39:15;;;;;;;10.37;6.50;;;;;;;;;;5034801;28;20199;-70
2023/08/15 05:41:41;;;;;;;12.65;6.65;;;;;;;;;;5032310;28;20731;-69
2023/08/15 05:44:07;;;;;;;8.60;5.50;;;;;;;;;;5034806;28;20194;-69
2023/08/15 05:46:33;;;;;;;9.00;5.70;;;;;;;;;;5033231;28;20182;-69
2023/08/15 05:48:59;;;;;;;11.80;6.23;;;;;;;;;;5034431;28;20665;-69
2023/08/15 05:51:25;;;;;;;12.00;6.07;;;;;;;;;;5034897;28;20277;-69
2023/08/15 05:53:51;;;;;;;15.03;6.33;;;;;;;;;;5034310;28;20171;-69
2023/08/15 05:56:17;;;;;;;9.73;6.27;;;;;;;;;;5034182;28;20179;-69
2023/08/15 05:58:43;;;;;;;11.10;6.30;;;;;;;;;;5032976;28;20225;-69
2023/08/15 06:01:09;;;;;;;10.53;6.27;;;;;;;;;;5034756;28;20203;-69
2023/08/15 06:03:35;;;;;;;13.63;6.73;;;;;;;;;;5035151;28;20633;-70
2023/08/15 06:06:01;;;;;;;13.50;6.77;;;;;;;;;;5034444;28;20629;-69
2023/08/15 06:08:27;;;;;;;10.30;6.50;;;;;;;;;;5034059;28;20205;-69
2023/08/15 06:10:54;;;;;;;13.27;5.93;;;;;;;;;;5034630;28;20660;-68
2023/08/15 06:13:20;;;;;;;15.27;6.27;;;;;;;;;;5034500;28;20262;-68
2023/08/15 06:15:45;;;;;;;8.10;5.67;;;;;;;;;;5034345;28;20175;-68
2023/08/15 06:18:11;;;;;;;8.97;5.13;;;;;;;;;;5033530;28;20215;-69
2023/08/15 06:20:38;;;;;;;12.57;6.03;;;;;;;;;;5032608;28;20632;-69
2023/08/15 06:23:04;;;;;;;14.37;5.50;;;;;;;;;;5034071;28;20175;-69
2023/08/15 06:25:30;;;;;;;12.10;5.17;;;;;;;;;;5033977;28;20175;-69
2023/08/15 06:27:56;;;;;;;9.63;5.00;;;;;;;;;;5034011;28;20179;-69
2023/08/15 06:30:22;;;;;;;11.13;5.40;;;;;;;;;;5032410;28;20252;-69
2023/08/15 06:32:48;;;;;;;11.77;5.60;;;;;;;;;;5034107;28;20186;-69
2023/08/15 06:35:14;;;;;;;10.83;5.20;;;;;;;;;;5034320;28;20186;-69
2023/08/15 06:37:40;;;;;;;12.57;5.80;;;;;;;;;;5033795;28;20609;-69
2023/08/15 06:40:08;;;;;;;11.57;6.00;;;;;;;;;;5034105;28;20213;-69
2023/08/15 06:42:34;;;;;;;12.50;6.30;;;;;;;;;;5033587;28;20181;-69
2023/08/15 06:45:16;;;;;;;11.93;6.50;;;;;;;;;;5033682;28;20179;-70
2023/08/15 06:47:42;;;;;;;14.93;6.87;;;;;;;;;;5034468;28;20567;-69
2023/08/15 06:50:08;;;;;;;13.30;6.70;;;;;;;;;;5033635;28;20202;-68
2023/08/15 06:52:34;;;;;;;10.60;6.30;;;;;;;;;;5033624;28;20186;-69
2023/08/15 06:55:03;;;;;;;12.80;6.13;;;;;;;;;;5033647;28;20275;-69
2023/08/15 06:57:30;;;;;;;9.77;6.17;;;;;;;;;;5033720;28;20566;-69
2023/08/15 06:59:56;;;;;;;11.23;6.17;;;;;;;;;;5033583;28;20197;-69
2023/08/15 07:02:22;;;;;;;9.93;5.60;;;;;;;;;;5033390;28;20254;-69
2023/08/15 07:04:48;;;;;;;12.70;5.83;;;;;;;;;;5033112;28;20179;-69
2023/08/15 07:07:15;;;;;;;13.77;6.10;;;;;;;;;;5043115;28;20645;-69
2023/08/15 07:09:41;;;;;;;10.37;5.40;;;;;;;;;;5033938;28;20787;-69
2023/08/15 07:12:07;;;;;;;11.57;5.33;;;;;;;;;;5032979;28;20218;-69
2023/08/15 07:14:33;;;;;;;8.47;5.20;;;;;;;;;;5034043;28;20602;-69
2023/08/15 07:16:59;;;;;;;11.57;5.90;;;;;;;;;;5034033;28;20199;-69
2023/08/15 07:19:25;;;;;;;11.10;5.20;;;;;;;;;;5034102;28;20211;-69
2023/08/15 07:21:51;;;;;;;11.40;5.20;;;;;;;;;;5033833;28;20175;-69
2023/08/15 07:24:17;;;;;;;13.33;5.67;;;;;;;;;;5032183;28;20206;-69
2023/08/15 07:26:44;;;;;;;12.60;5.30;;;;;;;;;;5032575;28;20579;-69
2023/08/15 07:29:10;;;;;;;8.30;5.07;;;;;;;;;;5032960;28;20339;-69
2023/08/15 07:31:36;;;;;;;10.30;5.57;;;;;;;;;;5033058;28;20187;-68
2023/08/15 07:34:02;;;;;;;10.50;5.00;;;;;;;;;;5032026;28;20273;-69
2023/08/15 07:36:28;;;;;;;10.97;5.00;;;;;;;;;;5033375;28;20560;-69
2023/08/15 07:38:54;;;;;;;11.67;4.70;;;;;;;;;;5033580;28;20211;-69
2023/08/15 07:41:20;;;;;;;8.73;5.10;;;;;;;;;;5033112;28;20554;-69
2023/08/15 07:43:46;;;;;;;9.70;4.73;;;;;;;;;;5032863;28;20175;-69
2023/08/15 07:46:12;;;;;;;7.00;4.70;;;;;;;;;;5033348;28;20183;-69
2023/08/15 07:48:38;;;;;;;7.97;4.50;;;;;;;;;;5033450;28;20203;-69
2023/08/15 07:51:04;;;;;;;12.13;4.80;;;;;;;;;;5033357;28;20175;-69
2023/08/15 07:53:30;;;;;;;8.27;4.97;;;;;;;;;;5033251;28;20538;-69
2023/08/15 07:55:57;;;;;;;7.83;5.43;;;;;;;;;;5033481;28;20190;-69
2023/08/15 07:58:23;;;;;;;8.67;5.00;;;;;;;;;;5033174;28;20209;-69
2023/08/15 08:00:49;;;;;;;10.07;5.27;;;;;;;;;;5033809;28;20577;-69
2023/08/15 08:03:16;;;;;;;8.23;5.10;;;;;;;;;;5033179;28;20206;-69
2023/08/15 08:05:42;;;;;;;7.37;4.63;;;;;;;;;;5032817;28;20171;-69
2023/08/15 08:08:08;;;;;;;9.20;5.00;;;;;;;;;;5031266;28;20208;-69
2023/08/15 08:10:34;;;;;;;9.47;4.67;;;;;;;;;;5031541;28;20325;-69
2023/08/15 08:13:01;;;;;;;10.37;4.80;;;;;;;;;;5032925;28;20210;-69
2023/08/15 08:15:27;;;;;;;10.13;4.00;;;;;;;;;;5032817;28;20186;-69
2023/08/15 08:17:53;;;;;;;7.63;3.70;;;;;;;;;;5032505;28;20210;-69
2023/08/15 08:20:20;;;;;;;11.30;3.83;;;;;;;;;;5036923;28;20270;-69
2023/08/15 08:22:47;;;;;;;7.43;3.77;;;;;;;;;;5036291;28;20175;-69
2023/08/15 08:25:31;;;;;;;11.70;4.10;;;;;;;;;;5035172;28;20179;-68
2023/08/15 08:27:57;;;;;;;9.30;3.60;;;;;;;;;;5036539;28;20191;-70
2023/08/15 08:30:23;;;;;;;9.90;3.77;;;;;;;;;;5036649;28;20195;-68
2023/08/15 08:32:52;;;;;;;6.70;3.37;;;;;;;;;;5036388;28;20183;-68
2023/08/15 08:35:18;;;;;;;11.20;3.77;;;;;;;;;;5036523;28;20274;-68
2023/08/15 08:37:45;;;;;;;8.50;3.50;;;;;;;;;;5036079;28;20225;-68
2023/08/15 08:40:14;;;;;;;10.77;3.73;;;;;;;;;;5035955;28;20192;-69
2023/08/15 08:42:40;;;;;;;7.07;3.53;;;;;;;;;;5036061;28;20186;-68
2023/08/15 08:45:08;;;;;;;9.13;3.70;;;;;;;;;;5036065;28;20245;-70
2023/08/15 08:47:34;;;;;;;8.03;3.20;;;;;;;;;;5035824;28;20185;-69
2023/08/15 08:50:01;;;;;;;9.37;3.50;;;;;;;;;;5034264;28;20699;-69
2023/08/15 08:52:28;;;;;;;7.97;3.10;;;;;;;;;;5035886;28;20175;-69
2023/08/15 08:54:54;;;;;;;7.53;3.20;;;;;;;;;;5036636;28;20627;-69
2023/08/15 08:57:20;;;;;;;7.22;3.63;;;;;;;;;;5034789;28;20411;-69
2023/08/15 08:59:46;;;;;;;6.67;2.93;;;;;;;;;;5034290;28;20278;-69
2023/08/15 09:02:14;;;;;;;7.90;2.73;;;;;;;;;;5035629;28;20275;-69
2023/08/15 09:04:41;;;;;;;7.50;3.20;;;;;;;;;;5035502;28;20198;-69
2023/08/15 09:07:07;;;;;;;5.40;2.73;;;;;;;;;;5034100;28;20536;-69
2023/08/15 09:09:33;;;;;;;7.90;3.03;;;;;;;;;;5035375;28;20274;-69
2023/08/15 09:11:59;;;;;;;4.57;2.83;;;;;;;;;;5035568;28;20676;-70
2023/08/15 09:14:25;;;;;;;8.07;3.00;;;;;;;;;;5035135;28;20183;-69
2023/08/15 09:16:51;;;;;;;7.73;3.17;;;;;;;;;;5035166;28;20311;-69
2023/08/15 09:19:17;;;;;;;5.63;2.57;;;;;;;;;;5035150;28;20595;-70
2023/08/15 09:21:43;;;;;;;5.73;2.63;;;;;;;;;;5033851;28;20179;-69
2023/08/15 09:24:09;;;;;;;7.10;2.53;;;;;;;;;;5035210;28;20185;-69
2023/08/15 09:26:36;;;;;;;4.87;2.60;;;;;;;;;;5033738;28;20193;-69
2023/08/15 09:29:02;;;;;;;6.10;2.93;;;;;;;;;;5033918;28;20257;-69
2023/08/15 09:31:28;;;;;;;6.63;3.30;;;;;;;;;;5034856;28;20236;-69
2023/08/15 09:33:54;;;;;;;4.60;2.90;;;;;;;;;;5035279;28;20183;-69
2023/08/15 09:36:23;;;;;;;7.30;2.80;;;;;;;;;;5035238;28;20183;-70
2023/08/15 09:38:53;;;;;;;5.07;2.90;;;;;;;;;;5034811;28;20215;-69
2023/08/15 09:41:24;;;;;;;5.70;2.70;;;;;;;;;;5033661;28;20210;-69
2023/08/15 09:43:50;;;;;;;6.53;2.87;;;;;;;;;;5035331;28;20156;-69
2023/08/15 09:46:17;;;;;;;6.57;2.60;;;;;;;;;;5034032;28;20273;-70
2023/08/15 09:48:45;;;;;;;6.13;2.53;;;;;;;;;;5034441;28;20238;-70
2023/08/15 09:51:12;;;;;;;5.10;2.60;;;;;;;;;;5034624;28;20183;-69
2023/08/15 09:53:39;;;;;;;6.43;2.60;;;;;;;;;;5033736;28;20179;-70
2023/08/15 09:56:04;;;;;;;4.97;2.97;;;;;;;;;;5034777;28;20233;-71
2023/08/15 09:58:31;;;;;;;7.03;2.70;;;;;;;;;;5033328;28;20222;-70
2023/08/15 10:00:58;;;;;;;6.53;2.80;;;;;;;;;;5035218;28;20318;-70
2023/08/15 10:03:25;;;;;;;3.77;2.40;;;;;;;;;;5034624;28;20258;-70
2023/08/15 10:05:53;;;;;;;5.03;2.67;;;;;;;;;;5034554;28;20187;-70
2023/08/15 10:08:19;;;;;;;7.57;3.07;;;;;;;;;;5034393;28;20265;-70
2023/08/15 10:10:49;;;;;;;4.50;2.70;;;;;;;;;;5034176;28;20183;-70
2023/08/15 10:13:15;;;;;;;5.13;3.13;;;;;;;;;;5032854;28;20183;-69
2023/08/15 10:15:42;;;;;;;4.40;2.60;;;;;;;;;;5032873;28;20225;-70
2023/08/15 10:18:08;;;;;;;5.50;3.30;;;;;;;;;;5034240;28;20209;-70
2023/08/15 10:20:35;;;;;;;7.80;2.80;;;;;;;;;;5034152;28;20270;-70
2023/08/15 10:23:02;;;;;;;6.03;2.90;;;;;;;;;;5032595;28;20187;-69
2023/08/15 10:25:28;;;;;;;4.33;3.03;;;;;;;;;;5034020;28;20206;-69
2023/08/15 10:27:55;;;;;;;5.87;3.20;;;;;;;;;;5032669;28;20179;-69
2023/08/15 10:30:29;;;;;;;8.70;3.30;;;;;;;;;;5033737;28;20199;-69
2023/08/15 10:32:55;;;;;;;5.70;2.97;;;;;;;;;;5033789;28;20179;-70
2023/08/15 10:35:27;;;;;;;7.23;3.03;;;;;;;;;;5032475;28;20183;-70
2023/08/15 10:37:56;;;;;;;6.63;3.07;;;;;;;;;;5032247;28;20214;-67
2023/08/15 10:40:22;;;;;;;5.23;2.90;;;;;;;;;;5033381;28;20195;-67
2023/08/15 10:43:11;;;;;;;7.00;3.13;;;;;;;;;;5033707;28;20175;-67
2023/08/15 10:45:43;;;;;;;4.43;2.90;;;;;;;;;;5034233;28;20186;-67
2023/08/15 10:48:10;;;;;;;5.70;2.97;;;;;;;;;;5032218;28;20183;-68
2023/08/15 10:50:36;;;;;;;4.97;2.97;;;;;;;;;;5033651;28;20237;-67
2023/08/15 10:53:02;;;;;;;10.13;3.10;;;;;;;;;;5043997;23;20233;-66
2023/08/15 10:55:29;;;;;;;7.87;3.00;;;;;;;;;;5016090;28;20175;-67
2023/08/15 10:57:56;;;;;;;5.27;2.97;;;;;;;;;;5034026;28;20207;-66
2023/08/15 11:00:22;;;;;;;7.43;3.07;;;;;;;;;;5015855;28;20186;-67
2023/08/15 11:02:49;;;;;;;10.60;3.73;;;;;;;;;;5033706;28;20198;-66
2023/08/15 11:05:15;;;;;;;5.27;3.10;;;;;;;;;;5034881;28;20171;-67
2023/08/15 11:07:41;;;;;;;6.40;3.00;;;;;;;;;;5033737;28;20171;-67
2023/08/15 11:10:08;;;;;;;6.77;3.13;;;;;;;;;;5034003;28;20649;-66
2023/08/15 11:12:35;;;;;;;4.57;2.80;;;;;;;;;;5033850;28;20217;-66
2023/08/15 11:15:01;;;;;;;5.53;2.70;;;;;;;;;;5015806;28;20179;-66
2023/08/15 11:17:27;;;;;;;8.07;3.20;;;;;;;;;;5015811;28;20206;-67
2023/08/15 11:19:54;;;;;;;6.87;3.30;;;;;;;;;;5015919;28;20179;-67
2023/08/15 11:22:20;;;;;;;9.70;3.50;;;;;;;;;;5033491;28;20175;-67
2023/08/15 11:24:52;;;;;;;6.83;2.73;;;;;;;;;;5015084;28;20194;-66
2023/08/15 11:27:18;;;;;;;8.57;3.13;;;;;;;;;;5033373;28;20226;-67
2023/08/15 11:29:44;;;;;;;7.07;3.17;;;;;;;;;;5032858;28;20257;-66
2023/08/15 11:32:10;;;;;;;8.33;3.33;;;;;;;;;;5015137;28;20179;-66
2023/08/15 11:34:39;;;;;;;8.83;3.40;;;;;;;;;;5032056;28;20394;-66
2023/08/15 11:37:05;;;;;;;8.10;3.50;;;;;;;;;;5014009;28;20383;-67
2023/08/15 11:39:31;;;;;;;6.90;3.43;;;;;;;;;;5031849;28;20410;-67
2023/08/15 11:41:57;;;;;;;6.77;3.37;;;;;;;;;;5031812;28;20841;-67
2023/08/15 11:44:23;;;;;;;6.45;3.33;;;;;;;;;;5013758;28;20748;-67
2023/08/15 11:46:49;;;;;;;7.65;3.53;;;;;;;;;;5032004;28;20466;-66
2023/08/15 11:49:16;;;;;;;6.23;3.23;;;;;;;;;;5015107;28;20183;-67
2023/08/15 11:51:43;;;;;;;8.93;3.40;;;;;;;;;;5032772;28;20631;-67
2023/08/15 11:54:08;;;;;;;5.87;3.23;;;;;;;;;;5035853;28;20207;-67
2023/08/15 11:56:50;;;;;;;7.70;3.03;;;;;;;;;;5037100;28;20668;-67
2023/08/15 11:59:18;;;;;;;7.15;3.50;;;;;;;;;;5035400;28;20387;-67
2023/08/15 12:01:44;;;;;;;6.45;3.30;;;;;;;;;;5035461;28;20371;-67
2023/08/15 12:04:13;;;;;;;6.65;3.40;;;;;;;;;;5017514;28;20463;-67
2023/08/15 12:06:40;;;;;;;6.25;3.58;;;;;;;;;;5035337;28;20371;-67
2023/08/15 12:09:09;;;;;;;7.45;3.35;;;;;;;;;;5035228;28;20441;-67
2023/08/15 12:11:35;;;;;;;7.07;3.17;;;;;;;;;;5035437;28;20723;-67
2023/08/15 12:14:05;;;;;;;7.13;3.47;;;;;;;;;;5035165;28;20418;-66
2023/08/15 12:16:31;;;;;;;7.60;3.50;;;;;;;;;;5035009;28;20387;-66
2023/08/15 12:18:57;;;;;;;7.20;3.67;;;;;;;;;;5036403;28;20207;-66
2023/08/15 12:21:23;;;;;;;5.13;2.77;;;;;;;;;;5036211;28;20179;-67
2023/08/15 12:23:49;;;;;;;6.10;3.20;;;;;;;;;;5018179;28;20699;-66
2023/08/15 12:26:15;;;;;;;6.67;3.13;;;;;;;;;;5018297;28;20175;-66
2023/08/15 12:28:41;;;;;;;5.97;2.93;;;;;;;;;;5036303;28;20233;-67
2023/08/15 12:31:07;;;;;;;6.67;2.97;;;;;;;;;;5036042;28;20527;-66
2023/08/15 12:33:36;;;;;;;6.03;3.03;;;;;;;;;;5035838;28;20191;-67
2023/08/15 12:36:02;;;;;;;5.68;3.22;;;;;;;;;;5034683;28;20429;-67
2023/08/15 12:38:29;;;;;;;8.00;3.63;;;;;;;;;;5016738;28;20403;-68
2023/08/15 12:40:54;;;;;;;5.87;3.17;;;;;;;;;;5035831;28;20171;-66
2023/08/15 12:43:20;;;;;;;9.87;3.87;;;;;;;;;;5035693;28;20575;-67
2023/08/15 12:45:47;;;;;;;9.00;3.20;;;;;;;;;;5018587;28;20183;-66
2023/08/15 12:48:13;;;;;;;8.90;3.25;;;;;;;;;;5035518;28;20393;-66
2023/08/15 12:50:40;;;;;;;7.65;3.33;;;;;;;;;;5036016;28;20980;-66
2023/08/15 12:53:08;;;;;;;6.37;3.27;;;;;;;;;;5017756;28;20452;-67
2023/08/15 12:55:34;;;;;;;7.88;3.80;;;;;;;;;;5016847;28;20419;-66
2023/08/15 12:58:02;;;;;;;7.43;4.40;;;;;;;;;;5034198;28;20560;-66
2023/08/15 13:00:28;;;;;;;13.95;7.45;;;;;;;;;;5034313;28;20394;-66
2023/08/15 13:02:54;;;;;;;7.88;4.38;;;;;;;;;;5016575;28;20462;-67
2023/08/15 13:05:20;;;;;;;10.80;4.93;;;;;;;;;;5016306;28;20458;-67
2023/08/15 13:07:46;;;;;;;10.07;4.53;;;;;;;;;;5016367;28;20395;-66
2023/08/15 13:10:12;;;;;;;7.57;3.73;;;;;;;;;;5034170;28;20386;-66
2023/08/15 13:12:38;;;;;;;6.38;3.63;;;;;;;;;;5034319;28;20853;-66
2023/08/15 13:15:06;;;;;;;8.85;3.90;;;;;;;;;;5034511;28;20440;-67
2023/08/15 13:17:32;;;;;;;9.60;4.10;;;;;;;;;;5016208;28;20816;-66
2023/08/15 13:19:58;;;;;;;7.45;3.75;;;;;;;;;;5034746;28;20788;-66
2023/08/15 13:22:24;;;;;;;7.60;3.40;;;;;;;;;;5016256;28;20764;-67
2023/08/15 13:24:50;;;;;;;6.63;3.60;;;;;;;;;;5034305;28;20470;-66
2023/08/15 13:27:17;;;;;;;7.90;3.70;;;;;;;;;;5033749;28;20391;-66
2023/08/15 13:29:43;;;;;;;10.87;3.80;;;;;;;;;;5015804;28;20903;-66
2023/08/15 13:32:09;;;;;;;6.50;3.57;;;;;;;;;;5033832;28;20414;-66
2023/08/15 13:34:35;;;;;;;7.40;3.50;;;;;;;;;;5033543;28;20398;-66
2023/08/15 13:37:01;;;;;;;8.55;4.40;;;;;;;;;;5034283;28;20737;-66
2023/08/15 13:39:27;;;;;;;8.30;3.40;;;;;;;;;;5033428;28;20889;-67
2023/08/15 13:41:53;;;;;;;8.70;3.78;;;;;;;;;;5015561;28;20427;-66
2023/08/15 13:44:19;;;;;;;8.73;3.58;;;;;;;;;;5033235;28;20426;-66
2023/08/15 13:46:45;;;;;;;9.90;4.30;;;;;;;;;;5033400;28;20380;-67
2023/08/15 13:49:11;;;;;;;11.48;4.80;;;;;;;;;;5033235;28;20441;-66
2023/08/15 13:51:37;;;;;;;6.90;4.22;;;;;;;;;;5033339;28;20382;-66
2023/08/15 13:54:05;;;;;;;8.18;3.75;;;;;;;;;;5032917;28;20889;-66
2023/08/15 13:56:30;;;;;;;8.73;3.53;;;;;;;;;;5015441;28;20395;-66
2023/08/15 13:58:56;;;;;;;7.67;3.53;;;;;;;;;;5032929;28;20490;-67
2023/08/15 14:01:22;;;;;;;6.93;3.47;;;;;;;;;;5033085;28;20741;-67
2023/08/15 14:03:48;;;;;;;6.57;3.47;;;;;;;;;;5015366;28;20758;-67
2023/08/15 14:06:14;;;;;;;9.32;3.50;;;;;;;;;;5015213;28;20459;-67
2023/08/15 14:08:40;;;;;;;8.45;3.58;;;;;;;;;;5033045;28;20387;-67
2023/08/15 14:11:06;;;;;;;9.63;3.83;;;;;;;;;;5033097;28;20853;-67
2023/08/15 14:13:32;;;;;;;7.63;3.72;;;;;;;;;;5032808;28;20387;-67
2023/08/15 14:15:58;;;;;;;9.53;3.80;;;;;;;;;;5032468;28;20775;-66
2023/08/15 14:18:25;;;;;;;7.63;3.50;;;;;;;;;;5014787;28;20482;-67
2023/08/15 14:20:51;;;;;;;7.53;3.53;;;;;;;;;;5032478;28;20967;-67
2023/08/15 14:23:17;;;;;;;9.32;3.50;;;;;;;;;;5032565;28;20410;-66
2023/08/15 14:25:43;;;;;;;6.73;3.17;;;;;;;;;;5014739;28;20379;-67
2023/08/15 14:28:09;;;;;;;7.83;3.70;;;;;;;;;;5032737;28;20375;-67
2023/08/15 14:30:35;;;;;;;7.13;4.13;;;;;;;;;;5014855;28;20383;-67
2023/08/15 14:33:01;;;;;;;9.05;3.90;;;;;;;;;;5014561;28;20402;-66